sensor_id;sensor_type;location;lat;lon;timestamp;P1;durP1;ratioP1;P2;durP2;ratioP2
49900;SDS011;35789;48.414;12.768;2024-03-22T00:00:00;27.5;;;17.5;;
49900;SDS011;35789;48.414;12.768;2024-03-22T00:05:00;27.5;;;17.5;;
49900;SDS011;35789;48.414;12.768;2024-03-22T00:10:01;27.5;;;17.5;;
49900;SDS011;35789;48.414;12.768;2024-03-22T00:15:00;27.5;;;17.5;;
49900;SDS011;35789;48.414;12.768;2024-03-22T00:20:00;27.5;;;17.5;;
49900;SDS011;35789;48.414;12.768;2024-03-22T00:25:00;27.5;;;17.5;;
49900;SDS011;35789;48.414;12.768;2024-03-22T00:30:00;28.5;;;17.5;;
49900;SDS011;35789;48.414;12.768;2024-03-22T00:35:00;28.5;;;17.5;;
49900;SDS011;35789;48.414;12.768;2024-03-22T00:40:00;28.5;;;17.5;;
49900;SDS011;35789;48.414;12.768;2024-03-22T00:45:00;28.5;;;17.5;;
49900;SDS011;35789;48.414;12.768;2024-03-22T00:50:00;28.5;;;17.5;;
49900;SDS011;35789;48.414;12.768;2024-03-22T00:55:00;28.5;;;17.5;;
49900;SDS011;35789;48.414;12.768;2024-03-22T01:00:00;29.5;;;18.5;;
49900;SDS011;35789;48.414;12.768;2024-03-22T01:05:00;29.5;;;18.5;;
49900;SDS011;35789;48.414;12.768;2024-03-22T01:10:00;29.5;;;18.5;;
49900;SDS011;35789;48.414;12.768;2024-03-22T01:15:00;29.5;;;18.5;;
49900;SDS011;35789;48.414;12.768;2024-03-22T01:20:00;29.5;;;18.5;;
49900;SDS011;35789;48.414;12.768;2024-03-22T01:25:00;29.5;;;18.5;;
49900;SDS011;35789;48.414;12.768;2024-03-22T01:30:01;27.5;;;16.7;;
49900;SDS011;35789;48.414;12.768;2024-03-22T01:35:00;27.5;;;16.7;;
49900;SDS011;35789;48.414;12.768;2024-03-22T01:40:00;27.5;;;16.7;;
49900;SDS011;35789;48.414;12.768;2024-03-22T01:45:00;27.5;;;16.7;;
49900;SDS011;35789;48.414;12.768;2024-03-22T01:50:01;27.5;;;16.7;;
49900;SDS011;35789;48.414;12.768;2024-03-22T01:55:00;27.5;;;16.7;;
49900;SDS011;35789;48.414;12.768;2024-03-22T02:00:00;25.6;;;16.8;;
49900;SDS011;35789;48.414;12.768;2024-03-22T02:05:11;25.6;;;16.8;;
49900;SDS011;35789;48.414;12.768;2024-03-22T02:10:00;25.6;;;16.8;;
49900;SDS011;35789;48.414;12.768;2024-03-22T02:15:02;25.6;;;16.8;;
49900;SDS011;35789;48.414;12.768;2024-03-22T02:20:01;25.6;;;16.8;;
49900;SDS011;35789;48.414;12.768;2024-03-22T02:25:00;25.6;;;16.8;;
49900;SDS011;35789;48.414;12.768;2024-03-22T02:30:00;30.9;;;18.1;;
49900;SDS011;35789;48.414;12.768;2024-03-22T02:35:00;30.9;;;18.1;;
49900;SDS011;35789;48.414;12.768;2024-03-22T02:40:00;30.9;;;18.1;;
49900;SDS011;35789;48.414;12.768;2024-03-22T02:45:00;30.9;;;18.1;;
49900;SDS011;35789;48.414;12.768;2024-03-22T02:50:00;30.9;;;18.1;;
49900;SDS011;35789;48.414;12.768;2024-03-22T02:55:00;30.9;;;18.1;;
49900;SDS011;35789;48.414;12.768;2024-03-22T03:00:00;22.3;;;14.3;;
49900;SDS011;35789;48.414;12.768;2024-03-22T03:05:00;22.3;;;14.3;;
49900;SDS011;35789;48.414;12.768;2024-03-22T03:10:01;22.3;;;14.3;;
49900;SDS011;35789;48.414;12.768;2024-03-22T03:15:00;22.3;;;14.3;;
49900;SDS011;35789;48.414;12.768;2024-03-22T03:20:00;22.3;;;14.3;;
49900;SDS011;35789;48.414;12.768;2024-03-22T03:25:00;22.3;;;14.3;;
49900;SDS011;35789;48.414;12.768;2024-03-22T03:30:01;20.4;;;13.4;;
49900;SDS011;35789;48.414;12.768;2024-03-22T03:35:00;20.4;;;13.4;;
49900;SDS011;35789;48.414;12.768;2024-03-22T03:40:00;20.4;;;13.4;;
49900;SDS011;35789;48.414;12.768;2024-03-22T03:45:00;20.4;;;13.4;;
49900;SDS011;35789;48.414;12.768;2024-03-22T03:50:00;20.4;;;13.4;;
49900;SDS011;35789;48.414;12.768;2024-03-22T03:55:00;20.4;;;13.4;;
49900;SDS011;35789;48.414;12.768;2024-03-22T04:00:00;23.8;;;14.9;;
49900;SDS011;35789;48.414;12.768;2024-03-22T04:05:00;23.8;;;14.9;;
49900;SDS011;35789;48.414;12.768;2024-03-22T04:10:00;23.8;;;14.9;;
49900;SDS011;35789;48.414;12.768;2024-03-22T04:15:00;23.8;;;14.9;;
49900;SDS011;35789;48.414;12.768;2024-03-22T04:20:00;23.8;;;14.9;;
49900;SDS011;35789;48.414;12.768;2024-03-22T04:25:00;23.8;;;14.9;;
49900;SDS011;35789;48.414;12.768;2024-03-22T04:30:00;28.5;;;16.7;;
49900;SDS011;35789;48.414;12.768;2024-03-22T04:35:00;28.5;;;16.7;;
49900;SDS011;35789;48.414;12.768;2024-03-22T04:40:00;28.5;;;16.7;;
49900;SDS011;35789;48.414;12.768;2024-03-22T04:45:00;28.5;;;16.7;;
49900;SDS011;35789;48.414;12.768;2024-03-22T04:50:00;28.5;;;16.7;;
49900;SDS011;35789;48.414;12.768;2024-03-22T04:55:00;28.5;;;16.7;;
49900;SDS011;35789;48.414;12.768;2024-03-22T05:00:00;22.3;;;13.7;;
49900;SDS011;35789;48.414;12.768;2024-03-22T05:05:00;22.3;;;13.7;;
49900;SDS011;35789;48.414;12.768;2024-03-22T05:10:00;22.3;;;13.7;;
49900;SDS011;35789;48.414;12.768;2024-03-22T05:15:01;22.3;;;13.7;;
49900;SDS011;35789;48.414;12.768;2024-03-22T05:20:01;22.3;;;13.7;;
49900;SDS011;35789;48.414;12.768;2024-03-22T05:25:00;22.3;;;13.7;;
49900;SDS011;35789;48.414;12.768;2024-03-22T05:30:00;22.1;;;13.9;;
49900;SDS011;35789;48.414;12.768;2024-03-22T05:35:00;22.1;;;13.9;;
49900;SDS011;35789;48.414;12.768;2024-03-22T05:40:00;22.1;;;13.9;;
49900;SDS011;35789;48.414;12.768;2024-03-22T05:45:00;22.1;;;13.9;;
49900;SDS011;35789;48.414;12.768;2024-03-22T05:50:00;22.1;;;13.9;;
49900;SDS011;35789;48.414;12.768;2024-03-22T05:55:00;22.1;;;13.9;;
49900;SDS011;35789;48.414;12.768;2024-03-22T06:00:00;25.3;;;15.6;;
49900;SDS011;35789;48.414;12.768;2024-03-22T06:05:00;25.3;;;15.6;;
49900;SDS011;35789;48.414;12.768;2024-03-22T06:10:00;25.3;;;15.6;;
49900;SDS011;35789;48.414;12.768;2024-03-22T06:15:00;25.3;;;15.6;;
49900;SDS011;35789;48.414;12.768;2024-03-22T06:20:00;25.3;;;15.6;;
49900;SDS011;35789;48.414;12.768;2024-03-22T06:25:00;25.3;;;15.6;;
49900;SDS011;35789;48.414;12.768;2024-03-22T06:30:00;26.9;;;17.5;;
49900;SDS011;35789;48.414;12.768;2024-03-22T06:35:00;26.9;;;17.5;;
49900;SDS011;35789;48.414;12.768;2024-03-22T06:40:00;26.9;;;17.5;;
49900;SDS011;35789;48.414;12.768;2024-03-22T06:45:01;26.9;;;17.5;;
49900;SDS011;35789;48.414;12.768;2024-03-22T06:50:00;26.9;;;17.5;;
49900;SDS011;35789;48.414;12.768;2024-03-22T06:55:00;26.9;;;17.5;;
49900;SDS011;35789;48.414;12.768;2024-03-22T07:00:00;34.3;;;20.6;;
49900;SDS011;35789;48.414;12.768;2024-03-22T07:05:00;34.3;;;20.6;;
49900;SDS011;35789;48.414;12.768;2024-03-22T07:10:00;34.3;;;20.6;;
49900;SDS011;35789;48.414;12.768;2024-03-22T07:15:01;34.3;;;20.6;;
49900;SDS011;35789;48.414;12.768;2024-03-22T07:20:00;34.3;;;20.6;;
49900;SDS011;35789;48.414;12.768;2024-03-22T07:25:00;34.3;;;20.6;;
49900;SDS011;35789;48.414;12.768;2024-03-22T07:30:00;30.8;;;19.1;;
49900;SDS011;35789;48.414;12.768;2024-03-22T07:35:00;30.8;;;19.1;;
49900;SDS011;35789;48.414;12.768;2024-03-22T07:40:00;30.8;;;19.1;;
49900;SDS011;35789;48.414;12.768;2024-03-22T07:45:00;30.8;;;19.1;;
49900;SDS011;35789;48.414;12.768;2024-03-22T07:50:00;30.8;;;19.1;;
49900;SDS011;35789;48.414;12.768;2024-03-22T07:55:00;30.8;;;19.1;;
49900;SDS011;35789;48.414;12.768;2024-03-22T08:00:00;25.1;;;17.0;;
49900;SDS011;35789;48.414;12.768;2024-03-22T08:05:00;25.1;;;17.0;;
49900;SDS011;35789;48.414;12.768;2024-03-22T08:10:00;25.1;;;17.0;;
49900;SDS011;35789;48.414;12.768;2024-03-22T08:15:00;25.1;;;17.0;;
49900;SDS011;35789;48.414;12.768;2024-03-22T08:20:00;25.1;;;17.0;;
49900;SDS011;35789;48.414;12.768;2024-03-22T08:25:00;25.1;;;17.0;;
49900;SDS011;35789;48.414;12.768;2024-03-22T08:30:00;20.4;;;15.1;;
49900;SDS011;35789;48.414;12.768;2024-03-22T08:35:00;20.4;;;15.1;;
49900;SDS011;35789;48.414;12.768;2024-03-22T08:40:00;20.4;;;15.1;;
49900;SDS011;35789;48.414;12.768;2024-03-22T08:45:00;20.4;;;15.1;;
49900;SDS011;35789;48.414;12.768;2024-03-22T08:50:00;20.4;;;15.1;;
49900;SDS011;35789;48.414;12.768;2024-03-22T08:55:00;20.4;;;15.1;;
49900;SDS011;35789;48.414;12.768;2024-03-22T09:00:00;17.9;;;13.1;;
49900;SDS011;35789;48.414;12.768;2024-03-22T09:05:00;17.9;;;13.1;;
49900;SDS011;35789;48.414;12.768;2024-03-22T09:10:00;17.9;;;13.1;;
49900;SDS011;35789;48.414;12.768;2024-03-22T09:15:00;17.9;;;13.1;;
49900;SDS011;35789;48.414;12.768;2024-03-22T09:20:00;17.9;;;13.1;;
49900;SDS011;35789;48.414;12.768;2024-03-22T09:25:00;17.9;;;13.1;;
49900;SDS011;35789;48.414;12.768;2024-03-22T09:30:00;17.3;;;11.4;;
49900;SDS011;35789;48.414;12.768;2024-03-22T09:35:00;17.3;;;11.4;;
49900;SDS011;35789;48.414;12.768;2024-03-22T09:40:00;17.3;;;11.4;;
49900;SDS011;35789;48.414;12.768;2024-03-22T09:45:01;17.3;;;11.4;;
49900;SDS011;35789;48.414;12.768;2024-03-22T09:50:01;17.3;;;11.4;;
49900;SDS011;35789;48.414;12.768;2024-03-22T09:55:00;17.3;;;11.4;;
49900;SDS011;35789;48.414;12.768;2024-03-22T10:00:00;15.8;;;9.2;;
49900;SDS011;35789;48.414;12.768;2024-03-22T10:05:00;15.8;;;9.2;;
49900;SDS011;35789;48.414;12.768;2024-03-22T10:10:00;15.8;;;9.2;;
49900;SDS011;35789;48.414;12.768;2024-03-22T10:15:00;15.8;;;9.2;;
49900;SDS011;35789;48.414;12.768;2024-03-22T10:20:00;15.8;;;9.2;;
49900;SDS011;35789;48.414;12.768;2024-03-22T10:25:00;15.8;;;9.2;;
49900;SDS011;35789;48.414;12.768;2024-03-22T10:30:00;17.5;;;11.3;;
49900;SDS011;35789;48.414;12.768;2024-03-22T10:35:01;17.5;;;11.3;;
49900;SDS011;35789;48.414;12.768;2024-03-22T10:40:02;17.5;;;11.3;;
49900;SDS011;35789;48.414;12.768;2024-03-22T10:45:00;17.5;;;11.3;;
49900;SDS011;35789;48.414;12.768;2024-03-22T10:50:04;17.5;;;11.3;;
49900;SDS011;35789;48.414;12.768;2024-03-22T10:55:01;15.9;;;9.8;;
49900;SDS011;35789;48.414;12.768;2024-03-22T11:00:00;15.9;;;9.8;;
49900;SDS011;35789;48.414;12.768;2024-03-22T11:05:00;15.9;;;9.8;;
49900;SDS011;35789;48.414;12.768;2024-03-22T11:10:01;15.9;;;9.8;;
49900;SDS011;35789;48.414;12.768;2024-03-22T11:15:00;15.9;;;9.8;;
49900;SDS011;35789;48.414;12.768;2024-03-22T11:20:00;15.9;;;9.8;;
49900;SDS011;35789;48.414;12.768;2024-03-22T11:25:00;14.4;;;8.7;;
49900;SDS011;35789;48.414;12.768;2024-03-22T11:30:00;14.4;;;8.7;;
49900;SDS011;35789;48.414;12.768;2024-03-22T11:35:00;14.4;;;8.7;;
49900;SDS011;35789;48.414;12.768;2024-03-22T11:40:00;14.4;;;8.7;;
49900;SDS011;35789;48.414;12.768;2024-03-22T11:45:03;14.4;;;8.7;;
49900;SDS011;35789;48.414;12.768;2024-03-22T11:50:01;14.4;;;8.7;;
49900;SDS011;35789;48.414;12.768;2024-03-22T11:55:00;13.1;;;9.2;;
49900;SDS011;35789;48.414;12.768;2024-03-22T12:00:01;13.1;;;9.2;;
49900;SDS011;35789;48.414;12.768;2024-03-22T12:05:00;13.1;;;9.2;;
49900;SDS011;35789;48.414;12.768;2024-03-22T12:10:00;13.1;;;9.2;;
49900;SDS011;35789;48.414;12.768;2024-03-22T12:15:00;13.1;;;9.2;;
49900;SDS011;35789;48.414;12.768;2024-03-22T12:20:00;13.1;;;9.2;;
49900;SDS011;35789;48.414;12.768;2024-03-22T12:25:00;9.3;;;6.0;;
49900;SDS011;35789;48.414;12.768;2024-03-22T12:30:00;9.3;;;6.0;;
49900;SDS011;35789;48.414;12.768;2024-03-22T12:35:00;9.3;;;6.0;;
49900;SDS011;35789;48.414;12.768;2024-03-22T12:40:00;9.3;;;6.0;;
49900;SDS011;35789;48.414;12.768;2024-03-22T12:45:00;9.3;;;6.0;;
49900;SDS011;35789;48.414;12.768;2024-03-22T12:50:00;9.3;;;6.0;;
49900;SDS011;35789;48.414;12.768;2024-03-22T12:55:00;9.8;;;6.0;;
49900;SDS011;35789;48.414;12.768;2024-03-22T13:00:00;9.8;;;6.0;;
49900;SDS011;35789;48.414;12.768;2024-03-22T13:05:00;9.8;;;6.0;;
49900;SDS011;35789;48.414;12.768;2024-03-22T13:10:00;9.8;;;6.0;;
49900;SDS011;35789;48.414;12.768;2024-03-22T13:15:00;9.8;;;6.0;;
49900;SDS011;35789;48.414;12.768;2024-03-22T13:20:00;9.8;;;6.0;;
49900;SDS011;35789;48.414;12.768;2024-03-22T13:25:00;13.0;;;7.0;;
49900;SDS011;35789;48.414;12.768;2024-03-22T13:30:00;13.0;;;7.0;;
49900;SDS011;35789;48.414;12.768;2024-03-22T13:35:00;13.0;;;7.0;;
49900;SDS011;35789;48.414;12.768;2024-03-22T13:40:00;13.0;;;7.0;;
49900;SDS011;35789;48.414;12.768;2024-03-22T13:45:00;13.0;;;7.0;;
49900;SDS011;35789;48.414;12.768;2024-03-22T13:50:00;13.0;;;7.0;;
49900;SDS011;35789;48.414;12.768;2024-03-22T13:55:00;11.3;;;7.6;;
49900;SDS011;35789;48.414;12.768;2024-03-22T14:00:00;11.3;;;7.6;;
49900;SDS011;35789;48.414;12.768;2024-03-22T14:05:00;11.3;;;7.6;;
49900;SDS011;35789;48.414;12.768;2024-03-22T14:10:00;11.3;;;7.6;;
49900;SDS011;35789;48.414;12.768;2024-03-22T14:15:00;11.3;;;7.6;;
49900;SDS011;35789;48.414;12.768;2024-03-22T14:20:00;11.3;;;7.6;;
49900;SDS011;35789;48.414;12.768;2024-03-22T14:25:00;8.6;;;5.6;;
49900;SDS011;35789;48.414;12.768;2024-03-22T14:30:00;8.6;;;5.6;;
49900;SDS011;35789;48.414;12.768;2024-03-22T14:35:00;8.6;;;5.6;;
49900;SDS011;35789;48.414;12.768;2024-03-22T14:40:00;8.6;;;5.6;;
49900;SDS011;35789;48.414;12.768;2024-03-22T14:45:00;8.6;;;5.6;;
49900;SDS011;35789;48.414;12.768;2024-03-22T14:50:00;8.6;;;5.6;;
49900;SDS011;35789;48.414;12.768;2024-03-22T14:55:00;9.5;;;6.5;;
49900;SDS011;35789;48.414;12.768;2024-03-22T15:00:00;9.5;;;6.5;;
49900;SDS011;35789;48.414;12.768;2024-03-22T15:05:00;9.5;;;6.5;;
49900;SDS011;35789;48.414;12.768;2024-03-22T15:10:00;9.5;;;6.5;;
49900;SDS011;35789;48.414;12.768;2024-03-22T15:15:00;9.5;;;6.5;;
49900;SDS011;35789;48.414;12.768;2024-03-22T15:20:00;9.5;;;6.5;;
49900;SDS011;35789;48.414;12.768;2024-03-22T15:25:00;10.6;;;7.1;;
49900;SDS011;35789;48.414;12.768;2024-03-22T15:30:00;10.6;;;7.1;;
49900;SDS011;35789;48.414;12.768;2024-03-22T15:35:00;10.6;;;7.1;;
49900;SDS011;35789;48.414;12.768;2024-03-22T15:40:00;10.6;;;7.1;;
49900;SDS011;35789;48.414;12.768;2024-03-22T15:45:00;10.6;;;7.1;;
49900;SDS011;35789;48.414;12.768;2024-03-22T15:50:00;10.6;;;7.1;;
49900;SDS011;35789;48.414;12.768;2024-03-22T15:55:00;11.0;;;6.8;;
49900;SDS011;35789;48.414;12.768;2024-03-22T16:00:00;11.0;;;6.8;;
49900;SDS011;35789;48.414;12.768;2024-03-22T16:05:00;11.0;;;6.8;;
49900;SDS011;35789;48.414;12.768;2024-03-22T16:10:00;11.0;;;6.8;;
49900;SDS011;35789;48.414;12.768;2024-03-22T16:15:00;11.0;;;6.8;;
49900;SDS011;35789;48.414;12.768;2024-03-22T16:20:01;11.0;;;6.8;;
49900;SDS011;35789;48.414;12.768;2024-03-22T16:25:00;11.4;;;6.7;;
49900;SDS011;35789;48.414;12.768;2024-03-22T16:30:00;11.4;;;6.7;;
49900;SDS011;35789;48.414;12.768;2024-03-22T16:35:00;11.4;;;6.7;;
49900;SDS011;35789;48.414;12.768;2024-03-22T16:40:00;11.4;;;6.7;;
49900;SDS011;35789;48.414;12.768;2024-03-22T16:45:00;11.4;;;6.7;;
49900;SDS011;35789;48.414;12.768;2024-03-22T16:50:00;11.4;;;6.7;;
49900;SDS011;35789;48.414;12.768;2024-03-22T16:55:00;16.0;;;9.1;;
49900;SDS011;35789;48.414;12.768;2024-03-22T17:00:00;16.0;;;9.1;;
49900;SDS011;35789;48.414;12.768;2024-03-22T17:05:00;16.0;;;9.1;;
49900;SDS011;35789;48.414;12.768;2024-03-22T17:10:00;16.0;;;9.1;;
49900;SDS011;35789;48.414;12.768;2024-03-22T17:15:00;16.0;;;9.1;;
49900;SDS011;35789;48.414;12.768;2024-03-22T17:20:00;16.0;;;9.1;;
49900;SDS011;35789;48.414;12.768;2024-03-22T17:25:00;10.3;;;6.6;;
49900;SDS011;35789;48.414;12.768;2024-03-22T17:30:00;10.3;;;6.6;;
49900;SDS011;35789;48.414;12.768;2024-03-22T17:35:00;10.3;;;6.6;;
49900;SDS011;35789;48.414;12.768;2024-03-22T17:40:00;10.3;;;6.6;;
49900;SDS011;35789;48.414;12.768;2024-03-22T17:45:00;10.3;;;6.6;;
49900;SDS011;35789;48.414;12.768;2024-03-22T17:50:00;10.3;;;6.6;;
49900;SDS011;35789;48.414;12.768;2024-03-22T17:55:00;10.8;;;6.5;;
49900;SDS011;35789;48.414;12.768;2024-03-22T18:00:00;10.8;;;6.5;;
49900;SDS011;35789;48.414;12.768;2024-03-22T18:05:00;10.8;;;6.5;;
49900;SDS011;35789;48.414;12.768;2024-03-22T18:10:00;10.8;;;6.5;;
49900;SDS011;35789;48.414;12.768;2024-03-22T18:15:00;10.8;;;6.5;;
49900;SDS011;35789;48.414;12.768;2024-03-22T18:20:00;10.8;;;6.5;;
49900;SDS011;35789;48.414;12.768;2024-03-22T18:25:00;12.1;;;6.4;;
49900;SDS011;35789;48.414;12.768;2024-03-22T18:30:00;12.1;;;6.4;;
49900;SDS011;35789;48.414;12.768;2024-03-22T18:35:00;12.1;;;6.4;;
49900;SDS011;35789;48.414;12.768;2024-03-22T18:40:00;12.1;;;6.4;;
49900;SDS011;35789;48.414;12.768;2024-03-22T18:45:00;12.1;;;6.4;;
49900;SDS011;35789;48.414;12.768;2024-03-22T18:50:00;12.1;;;6.4;;
49900;SDS011;35789;48.414;12.768;2024-03-22T18:55:02;12.2;;;7.5;;
49900;SDS011;35789;48.414;12.768;2024-03-22T19:00:00;12.2;;;7.5;;
49900;SDS011;35789;48.414;12.768;2024-03-22T19:05:00;12.2;;;7.5;;
49900;SDS011;35789;48.414;12.768;2024-03-22T19:10:00;12.2;;;7.5;;
49900;SDS011;35789;48.414;12.768;2024-03-22T19:15:00;12.2;;;7.5;;
49900;SDS011;35789;48.414;12.768;2024-03-22T19:20:00;12.2;;;7.5;;
49900;SDS011;35789;48.414;12.768;2024-03-22T19:25:00;14.1;;;8.3;;
49900;SDS011;35789;48.414;12.768;2024-03-22T19:30:00;14.1;;;8.3;;
49900;SDS011;35789;48.414;12.768;2024-03-22T19:35:00;14.1;;;8.3;;
49900;SDS011;35789;48.414;12.768;2024-03-22T19:40:00;14.1;;;8.3;;
49900;SDS011;35789;48.414;12.768;2024-03-22T19:45:00;14.1;;;8.3;;
49900;SDS011;35789;48.414;12.768;2024-03-22T19:50:00;14.1;;;8.3;;
49900;SDS011;35789;48.414;12.768;2024-03-22T19:55:00;12.7;;;8.2;;
49900;SDS011;35789;48.414;12.768;2024-03-22T20:00:00;12.7;;;8.2;;
49900;SDS011;35789;48.414;12.768;2024-03-22T20:05:00;12.7;;;8.2;;
49900;SDS011;35789;48.414;12.768;2024-03-22T20:10:00;12.7;;;8.2;;
49900;SDS011;35789;48.414;12.768;2024-03-22T20:15:00;12.7;;;8.2;;
49900;SDS011;35789;48.414;12.768;2024-03-22T20:20:00;12.7;;;8.2;;
49900;SDS011;35789;48.414;12.768;2024-03-22T20:25:00;13.1;;;8.7;;
49900;SDS011;35789;48.414;12.768;2024-03-22T20:30:00;13.1;;;8.7;;
49900;SDS011;35789;48.414;12.768;2024-03-22T20:35:00;13.1;;;8.7;;
49900;SDS011;35789;48.414;12.768;2024-03-22T20:40:00;13.1;;;8.7;;
